Fremont, NE

11:38 AM CDT on July 23, 2016 (GMT -0500)
Fremont Municipal

Weather History for KFET - March, 2012

Change the Weather History Date:

Monday, March 5, 2012

  Actual Average Record
Temperature  
Mean Temperature 40 °F -  
Max Temperature 59 °F 45 °F 75 °F (1987)
Min Temperature 21 °F 24 °F -12 °F (1960)
Degree Days  
Heating Degree Days 25    
Moisture  
Dew Point 23 °F    
Average Humidity 62    
Maximum Humidity 95    
Minimum Humidity 25    
Precipitation  
Precipitation 0.00 in - - ()
Sea Level Pressure  
Sea Level Pressure 30.13 in    
Wind  
Wind Speed 6 mph (South)    
Max Wind Speed 20 mph    
Max Gust Speed 33 mph    
Visibility 10 miles    
Events      
Averages and records for this station are not official NWS values.
T = Trace of Precipitation, MM = Missing Value Source: NWS Daily Summary

Daily Weather History Graph

Daily Weather History Graph

Search for Another Location

Airport or City:

Trip Planner

Search our weather history database for the weather conditions in past years. The results will help you decide how hot, cold, wet, or windy it might be!

Date:

Astronomy

Mar. 05, 2012 Rise Set
Actual Time 6:53 AM CST 6:22 PM CST
Civil Twilight 6:25 AM CST 6:49 PM CST
Nautical Twilight 5:53 AM CST 7:21 PM CST
Astronomical Twilight 5:21 AM CST 7:53 PM CST
Moon 3:40 PM CST (3/5) 4:55 AM CST (3/5)
Length of Visible Light 12h 23m
Length of Day
11h 28m
Waxing Gibbous, 91% of the Moon is Illuminated
Mar 5
Waxing Gibbous
Mar 8
Full
Mar 14
Last Quarter
Mar 22
New
Mar 30
First Quarter

Hourly Weather History & Observations

Time (CST) Temp. Windchill Dew Point Humidity Pressure Visibility Wind Dir Wind Speed Gust Speed Precip Events Conditions
12:15 AM 27.5 °F - 23.4 °F 84% 30.19 in 10.0 mi Calm Calm - N/A   Clear
12:35 AM 26.8 °F - 23.0 °F 86% 30.20 in 10.0 mi Calm Calm - N/A   Clear
12:55 AM 25.9 °F - 22.8 °F 88% 30.21 in 10.0 mi Calm Calm - N/A   Clear
1:15 AM 25.0 °F - 22.3 °F 89% 30.21 in 10.0 mi Calm Calm - N/A   Clear
1:35 AM 24.8 °F - 21.6 °F 87% 30.22 in 10.0 mi Calm Calm - N/A   Clear
1:55 AM 24.6 °F - 21.7 °F 89% 30.22 in 10.0 mi Calm Calm - N/A   Clear
2:15 AM 24.6 °F - 22.3 °F 91% 30.22 in 10.0 mi Calm Calm - N/A   Clear
2:35 AM 23.2 °F 18.7 °F 21.4 °F 93% 30.22 in 10.0 mi SSW 3.5 mph - N/A   Clear
2:55 AM 25.0 °F - 23.7 °F 95% 30.22 in 10.0 mi Calm Calm - N/A   Clear
3:15 AM 25.0 °F - 23.7 °F 95% 30.21 in 10.0 mi Calm Calm - N/A   Clear
3:35 AM 23.4 °F - 21.6 °F 93% 30.20 in 10.0 mi Calm Calm - N/A   Clear
3:55 AM 23.7 °F - 21.9 °F 93% 30.20 in 10.0 mi Calm Calm - N/A   Clear
4:15 AM 21.7 °F - 19.4 °F 91% 30.21 in 10.0 mi Calm Calm - N/A   Clear
4:35 AM 21.7 °F - 20.1 °F 93% 30.21 in 10.0 mi Calm Calm - N/A   Clear
4:55 AM 24.3 °F 18.4 °F 22.1 °F 91% 30.21 in 10.0 mi SSW 4.6 mph - N/A   Clear
5:15 AM 24.6 °F - 21.6 °F 88% 30.21 in 10.0 mi Calm Calm - N/A   Clear
5:35 AM 25.0 °F - 21.9 °F 88% 30.21 in 10.0 mi Calm Calm - N/A   Clear
5:55 AM 24.4 °F - 21.7 °F 89% 30.21 in 10.0 mi Calm Calm - N/A   Clear
6:15 AM 23.9 °F - 21.2 °F 89% 30.22 in 10.0 mi Calm Calm - N/A   Clear
6:35 AM 23.0 °F - 21.2 °F 93% 30.22 in 10.0 mi Calm Calm - N/A   Clear
6:55 AM 25.0 °F 20.7 °F 21.7 °F 87% 30.22 in 10.0 mi SE 3.5 mph - N/A   Clear
7:15 AM 25.2 °F 20.9 °F 21.2 °F 85% 30.22 in 10.0 mi SSE 3.5 mph - N/A   Clear
7:35 AM 26.4 °F 22.4 °F 22.6 °F 86% 30.21 in 10.0 mi SE 3.5 mph - N/A   Clear
7:55 AM 29.1 °F 24.1 °F 23.4 °F 79% 30.21 in 10.0 mi SSE 4.6 mph - N/A   Clear
8:15 AM 31.8 °F 23.3 °F 24.1 °F 73% 30.21 in 10.0 mi South 10.4 mph - N/A   Clear
8:35 AM 32.4 °F 23.0 °F 24.6 °F 73% 30.21 in 10.0 mi South 12.7 mph - N/A   Clear
8:55 AM 32.9 °F 23.7 °F 25.2 °F 73% 30.21 in 10.0 mi South 12.7 mph - N/A   Clear
9:15 AM 34.7 °F 24.7 °F 26.1 °F 71% 30.21 in 10.0 mi South 16.1 mph 21.9 mph N/A   Clear
9:35 AM 35.8 °F 27.3 °F 26.2 °F 68% 30.20 in 10.0 mi South 12.7 mph 20.7 mph N/A   Clear
9:55 AM 36.9 °F 27.5 °F 26.2 °F 65% 30.19 in 10.0 mi South 16.1 mph 21.9 mph N/A   Clear
10:15 AM 38.7 °F 30.9 °F 26.2 °F 61% 30.18 in 10.0 mi South 12.7 mph - N/A   Clear
10:35 AM 39.6 °F 30.3 °F 25.5 °F 57% 30.18 in 10.0 mi SSE 18.4 mph 24.2 mph N/A   Clear
10:55 AM 41.7 °F 33.4 °F 24.6 °F 51% 30.17 in 10.0 mi SSE 17.3 mph 24.2 mph N/A   Clear
11:15 AM 42.8 °F 34.5 °F 23.9 °F 47% 30.16 in 10.0 mi South 18.4 mph 25.3 mph N/A   Clear
11:35 AM 43.9 °F 36.2 °F 23.5 °F 45% 30.14 in 10.0 mi South 17.3 mph 23.0 mph N/A   Clear
11:55 AM 45.7 °F 39.1 °F 22.6 °F 40% 30.14 in 10.0 mi SSE 15.0 mph 23.0 mph N/A   Clear
12:15 PM 46.9 °F - 21.9 °F 37% 30.13 in 10.0 mi South 16.1 mph 23.0 mph N/A   Clear
12:35 PM 48.7 °F - 21.6 °F 34% 30.11 in 10.0 mi South 12.7 mph 19.6 mph N/A   Clear
12:55 PM 49.5 °F - 21.2 °F 33% 30.09 in 10.0 mi South 15.0 mph 24.2 mph N/A   Clear
1:15 PM 51.4 °F - 21.2 °F 31% 30.07 in 10.0 mi South 18.4 mph 25.3 mph N/A   Clear
1:35 PM 52.5 °F - 21.7 °F 30% 30.05 in 10.0 mi South 17.3 mph 25.3 mph N/A   Clear
1:55 PM 54.0 °F - 22.5 °F 29% 30.02 in 10.0 mi SSE 16.1 mph 25.3 mph N/A   Clear
2:15 PM 54.9 °F - 21.9 °F 28% 30.00 in 10.0 mi South 19.6 mph 27.6 mph N/A   Clear
2:35 PM 56.1 °F - 23.4 °F 28% 30.00 in 10.0 mi South 18.4 mph 27.6 mph N/A   Clear
2:55 PM 57.0 °F - 22.5 °F 26% 29.99 in 10.0 mi South 19.6 mph 33.4 mph N/A   Clear
3:15 PM 57.6 °F - 22.3 °F 26% 29.98 in 10.0 mi South 18.4 mph 27.6 mph N/A   Clear
3:35 PM 58.1 °F - 22.3 °F 25% 29.97 in 10.0 mi South 13.8 mph 27.6 mph N/A   Clear
3:55 PM 58.8 °F - 22.8 °F 25% 29.96 in 10.0 mi South 18.4 mph 29.9 mph N/A   Clear
4:15 PM 59.0 °F - 23.4 °F 25% 29.94 in 10.0 mi South 19.6 mph 26.5 mph N/A   Clear
4:35 PM 59.5 °F - 23.2 °F 25% 29.93 in 10.0 mi South 19.6 mph 28.8 mph N/A   Clear
4:55 PM 59.4 °F - 23.7 °F 25% 29.92 in 10.0 mi South 17.3 mph 25.3 mph N/A   Clear
5:15 PM 59.7 °F - 24.6 °F 26% 29.92 in 10.0 mi South 18.4 mph 23.0 mph N/A   Clear
5:35 PM 59.0 °F - 25.2 °F 27% 29.91 in 10.0 mi South 13.8 mph 23.0 mph N/A   Clear
5:55 PM 58.3 °F - 25.3 °F 28% 29.90 in 10.0 mi South 13.8 mph 18.4 mph N/A   Clear
6:15 PM 57.2 °F - 25.5 °F 30% 29.90 in 10.0 mi South 12.7 mph 19.6 mph N/A   Clear
6:35 PM 55.8 °F - 25.7 °F 31% 29.89 in 10.0 mi SSE 11.5 mph - N/A   Clear
6:55 PM 54.7 °F - 26.2 °F 33% 29.89 in 10.0 mi SSE 11.5 mph - N/A   Clear
7:15 PM 53.4 °F - 26.6 °F 36% 29.89 in 10.0 mi SSE 11.5 mph - N/A   Clear
7:35 PM 54.1 °F - 25.9 °F 34% 29.88 in 10.0 mi SSE 13.8 mph 19.6 mph N/A   Clear
7:55 PM 54.5 °F - 26.1 °F 33% 29.87 in 10.0 mi SSE 13.8 mph - N/A   Clear
8:15 PM 51.4 °F - 26.4 °F 38% 29.86 in 10.0 mi SSE 15.0 mph - N/A   Clear
8:35 PM 51.3 °F - 25.5 °F 37% 29.85 in 10.0 mi SSE 15.0 mph - N/A   Clear
8:55 PM 50.7 °F - 25.5 °F 38% 29.85 in 10.0 mi SE 13.8 mph - N/A   Clear
9:15 PM 50.9 °F - 25.7 °F 38% 29.84 in 10.0 mi SE 15.0 mph 20.7 mph N/A   Clear
9:35 PM 48.7 °F - 26.4 °F 42% 29.83 in 10.0 mi SE 12.7 mph - N/A   Clear
9:55 PM 48.4 °F - 27.1 °F 44% 29.81 in 10.0 mi SE 12.7 mph - N/A   Clear
10:15 PM 48.4 °F - 27.3 °F 44% 29.81 in 10.0 mi SE 11.5 mph - N/A   Clear
10:35 PM 48.4 °F - 26.8 °F 43% 29.79 in 10.0 mi SSE 15.0 mph - N/A   Clear
10:55 PM 49.1 °F - 26.4 °F 41% 29.78 in 10.0 mi SSE 17.3 mph 24.2 mph N/A   Clear
11:15 PM 48.9 °F - 26.6 °F 42% 29.77 in 10.0 mi SSE 17.3 mph 21.9 mph N/A   Clear
11:35 PM 49.3 °F - 27.3 °F 43% 29.76 in 10.0 mi SSE 16.1 mph 23.0 mph N/A   Clear
11:55 PM 49.1 °F - 27.7 °F 44% 29.75 in 10.0 mi SSE 15.0 mph - N/A   Clear